sensor_id;sensor_type;location;lat;lon;timestamp;P1;durP1;ratioP1;P2;durP2;ratioP2
22652;SDS011;11493;43.344;26.226;2022-07-23T00:00:44;6.80;;;2.10;;
22652;SDS011;11493;43.344;26.226;2022-07-23T00:03:11;3.67;;;1.70;;
22652;SDS011;11493;43.344;26.226;2022-07-23T00:05:38;4.45;;;2.22;;
22652;SDS011;11493;43.344;26.226;2022-07-23T00:08:06;9.00;;;2.38;;
22652;SDS011;11493;43.344;26.226;2022-07-23T00:10:36;5.67;;;2.10;;
22652;SDS011;11493;43.344;26.226;2022-07-23T00:13:04;13.85;;;2.40;;
22652;SDS011;11493;43.344;26.226;2022-07-23T00:15:31;4.72;;;2.03;;
22652;SDS011;11493;43.344;26.226;2022-07-23T00:17:58;5.00;;;2.03;;
22652;SDS011;11493;43.344;26.226;2022-07-23T00:20:26;5.68;;;1.80;;
22652;SDS011;11493;43.344;26.226;2022-07-23T00:22:54;3.90;;;1.52;;
22652;SDS011;11493;43.344;26.226;2022-07-23T00:25:22;5.55;;;1.90;;
22652;SDS011;11493;43.344;26.226;2022-07-23T00:27:55;2.50;;;2.00;;
22652;SDS011;11493;43.344;26.226;2022-07-23T00:30:23;7.47;;;1.85;;
22652;SDS011;11493;43.344;26.226;2022-07-23T00:32:52;8.82;;;1.70;;
22652;SDS011;11493;43.344;26.226;2022-07-23T00:35:24;4.53;;;1.73;;
22652;SDS011;11493;43.344;26.226;2022-07-23T00:37:53;7.55;;;2.03;;
22652;SDS011;11493;43.344;26.226;2022-07-23T00:40:22;3.33;;;1.70;;
22652;SDS011;11493;43.344;26.226;2022-07-23T00:42:50;5.53;;;1.70;;
22652;SDS011;11493;43.344;26.226;2022-07-23T00:45:17;3.53;;;1.55;;
22652;SDS011;11493;43.344;26.226;2022-07-23T00:47:46;3.10;;;1.65;;
22652;SDS011;11493;43.344;26.226;2022-07-23T00:50:14;11.20;;;1.90;;
22652;SDS011;11493;43.344;26.226;2022-07-23T00:52:42;3.33;;;1.70;;
22652;SDS011;11493;43.344;26.226;2022-07-23T00:55:10;5.45;;;1.88;;
22652;SDS011;11493;43.344;26.226;2022-07-23T00:57:39;3.53;;;2.08;;
22652;SDS011;11493;43.344;26.226;2022-07-23T01:00:08;4.15;;;1.83;;
22652;SDS011;11493;43.344;26.226;2022-07-23T01:02:40;8.90;;;2.10;;
22652;SDS011;11493;43.344;26.226;2022-07-23T01:05:08;5.40;;;2.05;;
22652;SDS011;11493;43.344;26.226;2022-07-23T01:07:37;3.35;;;1.77;;
22652;SDS011;11493;43.344;26.226;2022-07-23T01:10:05;4.95;;;1.65;;
22652;SDS011;11493;43.344;26.226;2022-07-23T01:12:54;6.90;;;1.80;;
22652;SDS011;11493;43.344;26.226;2022-07-23T01:15:21;5.35;;;2.22;;
22652;SDS011;11493;43.344;26.226;2022-07-23T01:17:50;10.93;;;2.13;;
22652;SDS011;11493;43.344;26.226;2022-07-23T01:20:18;6.38;;;2.33;;
22652;SDS011;11493;43.344;26.226;2022-07-23T01:22:45;4.40;;;1.98;;
22652;SDS011;11493;43.344;26.226;2022-07-23T01:25:14;4.82;;;1.90;;
22652;SDS011;11493;43.344;26.226;2022-07-23T01:27:51;9.48;;;1.83;;
22652;SDS011;11493;43.344;26.226;2022-07-23T01:30:20;8.07;;;2.20;;
22652;SDS011;11493;43.344;26.226;2022-07-23T01:32:47;2.88;;;1.77;;
22652;SDS011;11493;43.344;26.226;2022-07-23T01:35:15;10.85;;;2.33;;
22652;SDS011;11493;43.344;26.226;2022-07-23T01:37:42;4.05;;;1.88;;
22652;SDS011;11493;43.344;26.226;2022-07-23T01:40:10;7.53;;;2.15;;
22652;SDS011;11493;43.344;26.226;2022-07-23T01:42:38;7.47;;;1.95;;
22652;SDS011;11493;43.344;26.226;2022-07-23T01:45:07;7.75;;;2.10;;
22652;SDS011;11493;43.344;26.226;2022-07-23T01:47:36;4.18;;;2.30;;
22652;SDS011;11493;43.344;26.226;2022-07-23T01:50:04;5.10;;;2.05;;
22652;SDS011;11493;43.344;26.226;2022-07-23T01:52:41;3.38;;;1.70;;
22652;SDS011;11493;43.344;26.226;2022-07-23T01:55:09;7.50;;;2.53;;
22652;SDS011;11493;43.344;26.226;2022-07-23T01:57:46;3.20;;;2.10;;
22652;SDS011;11493;43.344;26.226;2022-07-23T02:00:14;3.80;;;2.10;;
22652;SDS011;11493;43.344;26.226;2022-07-23T02:02:46;4.90;;;1.90;;
22652;SDS011;11493;43.344;26.226;2022-07-23T02:05:14;4.65;;;2.13;;
22652;SDS011;11493;43.344;26.226;2022-07-23T02:07:41;7.95;;;2.20;;
22652;SDS011;11493;43.344;26.226;2022-07-23T02:10:09;11.32;;;2.47;;
22652;SDS011;11493;43.344;26.226;2022-07-23T02:12:37;3.00;;;1.98;;
22652;SDS011;11493;43.344;26.226;2022-07-23T02:15:25;7.28;;;2.55;;
22652;SDS011;11493;43.344;26.226;2022-07-23T02:17:52;4.28;;;2.40;;
22652;SDS011;11493;43.344;26.226;2022-07-23T02:20:20;5.28;;;2.58;;
22652;SDS011;11493;43.344;26.226;2022-07-23T02:22:47;2.88;;;2.58;;
22652;SDS011;11493;43.344;26.226;2022-07-23T02:25:15;4.70;;;2.25;;
22652;SDS011;11493;43.344;26.226;2022-07-23T02:27:42;3.35;;;1.77;;
22652;SDS011;11493;43.344;26.226;2022-07-23T02:30:10;5.45;;;2.20;;
22652;SDS011;11493;43.344;26.226;2022-07-23T02:32:38;4.78;;;1.90;;
22652;SDS011;11493;43.344;26.226;2022-07-23T02:35:09;5.75;;;1.90;;
22652;SDS011;11493;43.344;26.226;2022-07-23T02:37:37;2.75;;;2.10;;
22652;SDS011;11493;43.344;26.226;2022-07-23T02:40:04;5.32;;;2.00;;
22652;SDS011;11493;43.344;26.226;2022-07-23T02:42:36;7.90;;;2.13;;
22652;SDS011;11493;43.344;26.226;2022-07-23T02:45:04;4.63;;;2.05;;
22652;SDS011;11493;43.344;26.226;2022-07-23T02:47:32;3.60;;;2.22;;
22652;SDS011;11493;43.344;26.226;2022-07-23T02:50:00;8.88;;;2.40;;
22652;SDS011;11493;43.344;26.226;2022-07-23T02:52:29;2.97;;;2.28;;
22652;SDS011;11493;43.344;26.226;2022-07-23T02:54:56;2.88;;;1.90;;
22652;SDS011;11493;43.344;26.226;2022-07-23T02:57:24;5.30;;;2.30;;
22652;SDS011;11493;43.344;26.226;2022-07-23T02:59:51;9.38;;;2.30;;
22652;SDS011;11493;43.344;26.226;2022-07-23T03:02:18;9.45;;;2.65;;
22652;SDS011;11493;43.344;26.226;2022-07-23T03:04:47;5.45;;;2.60;;
22652;SDS011;11493;43.344;26.226;2022-07-23T03:07:16;9.48;;;2.38;;
22652;SDS011;11493;43.344;26.226;2022-07-23T03:09:44;4.43;;;2.60;;
22652;SDS011;11493;43.344;26.226;2022-07-23T03:12:11;8.60;;;2.17;;
22652;SDS011;11493;43.344;26.226;2022-07-23T03:14:40;9.73;;;2.63;;
22652;SDS011;11493;43.344;26.226;2022-07-23T03:17:08;8.85;;;2.33;;
22652;SDS011;11493;43.344;26.226;2022-07-23T03:19:36;4.85;;;1.90;;
22652;SDS011;11493;43.344;26.226;2022-07-23T03:22:08;6.50;;;2.30;;
22652;SDS011;11493;43.344;26.226;2022-07-23T03:24:35;3.95;;;2.38;;
22652;SDS011;11493;43.344;26.226;2022-07-23T03:27:30;7.68;;;2.40;;
22652;SDS011;11493;43.344;26.226;2022-07-23T03:29:58;5.05;;;2.55;;
22652;SDS011;11493;43.344;26.226;2022-07-23T03:32:29;10.45;;;2.30;;
22652;SDS011;11493;43.344;26.226;2022-07-23T03:34:58;7.68;;;2.67;;
22652;SDS011;11493;43.344;26.226;2022-07-23T03:37:26;10.85;;;2.45;;
22652;SDS011;11493;43.344;26.226;2022-07-23T03:39:56;10.20;;;2.85;;
22652;SDS011;11493;43.344;26.226;2022-07-23T03:42:24;7.38;;;2.60;;
22652;SDS011;11493;43.344;26.226;2022-07-23T03:44:51;5.30;;;2.30;;
22652;SDS011;11493;43.344;26.226;2022-07-23T03:47:18;6.20;;;2.13;;
22652;SDS011;11493;43.344;26.226;2022-07-23T03:49:49;4.28;;;2.20;;
22652;SDS011;11493;43.344;26.226;2022-07-23T03:52:16;9.60;;;2.33;;
22652;SDS011;11493;43.344;26.226;2022-07-23T03:54:46;5.60;;;2.15;;
22652;SDS011;11493;43.344;26.226;2022-07-23T03:57:13;4.65;;;2.90;;
22652;SDS011;11493;43.344;26.226;2022-07-23T03:59:41;13.85;;;2.53;;
22652;SDS011;11493;43.344;26.226;2022-07-23T04:02:09;4.63;;;2.38;;
22652;SDS011;11493;43.344;26.226;2022-07-23T04:04:36;4.00;;;2.20;;
22652;SDS011;11493;43.344;26.226;2022-07-23T04:07:04;5.53;;;2.28;;
22652;SDS011;11493;43.344;26.226;2022-07-23T04:09:33;5.75;;;2.00;;
22652;SDS011;11493;43.344;26.226;2022-07-23T04:12:01;4.78;;;2.40;;
22652;SDS011;11493;43.344;26.226;2022-07-23T04:14:29;8.90;;;2.10;;
22652;SDS011;11493;43.344;26.226;2022-07-23T04:16:56;4.82;;;2.22;;
22652;SDS011;11493;43.344;26.226;2022-07-23T04:19:24;7.93;;;2.72;;
22652;SDS011;11493;43.344;26.226;2022-07-23T04:22:02;12.73;;;2.33;;
22652;SDS011;11493;43.344;26.226;2022-07-23T04:24:32;6.38;;;2.35;;
22652;SDS011;11493;43.344;26.226;2022-07-23T04:26:59;7.32;;;2.50;;
22652;SDS011;11493;43.344;26.226;2022-07-23T04:29:27;9.75;;;2.40;;
22652;SDS011;11493;43.344;26.226;2022-07-23T04:31:55;5.93;;;2.47;;
22652;SDS011;11493;43.344;26.226;2022-07-23T04:34:23;4.90;;;2.40;;
22652;SDS011;11493;43.344;26.226;2022-07-23T04:36:53;8.45;;;2.60;;
22652;SDS011;11493;43.344;26.226;2022-07-23T04:39:21;8.48;;;2.30;;
22652;SDS011;11493;43.344;26.226;2022-07-23T04:41:49;13.75;;;3.08;;
22652;SDS011;11493;43.344;26.226;2022-07-23T04:44:16;9.88;;;2.50;;
22652;SDS011;11493;43.344;26.226;2022-07-23T04:46:44;6.68;;;2.88;;
22652;SDS011;11493;43.344;26.226;2022-07-23T04:49:13;3.08;;;2.20;;
22652;SDS011;11493;43.344;26.226;2022-07-23T04:51:40;6.15;;;2.30;;
22652;SDS011;11493;43.344;26.226;2022-07-23T04:54:08;7.68;;;2.97;;
22652;SDS011;11493;43.344;26.226;2022-07-23T04:56:35;6.82;;;2.70;;
22652;SDS011;11493;43.344;26.226;2022-07-23T04:59:04;6.22;;;2.65;;
22652;SDS011;11493;43.344;26.226;2022-07-23T05:01:32;21.77;;;4.22;;
22652;SDS011;11493;43.344;26.226;2022-07-23T05:03:59;11.15;;;3.10;;
22652;SDS011;11493;43.344;26.226;2022-07-23T05:06:30;32.28;;;4.45;;
22652;SDS011;11493;43.344;26.226;2022-07-23T05:08:58;15.32;;;3.90;;
22652;SDS011;11493;43.344;26.226;2022-07-23T05:11:26;6.57;;;6.03;;
22652;SDS011;11493;43.344;26.226;2022-07-23T05:13:53;11.23;;;7.00;;
22652;SDS011;11493;43.344;26.226;2022-07-23T05:16:22;10.43;;;5.85;;
22652;SDS011;11493;43.344;26.226;2022-07-23T05:18:51;35.85;;;9.77;;
22652;SDS011;11493;43.344;26.226;2022-07-23T05:21:18;26.20;;;10.73;;
22652;SDS011;11493;43.344;26.226;2022-07-23T05:23:45;13.30;;;7.90;;
22652;SDS011;11493;43.344;26.226;2022-07-23T05:26:13;8.07;;;6.20;;
22652;SDS011;11493;43.344;26.226;2022-07-23T05:28:40;17.58;;;5.93;;
22652;SDS011;11493;43.344;26.226;2022-07-23T05:31:15;15.40;;;6.00;;
22652;SDS011;11493;43.344;26.226;2022-07-23T05:33:43;15.88;;;5.70;;
22652;SDS011;11493;43.344;26.226;2022-07-23T05:36:11;24.38;;;8.70;;
22652;SDS011;11493;43.344;26.226;2022-07-23T05:38:58;20.58;;;11.73;;
22652;SDS011;11493;43.344;26.226;2022-07-23T05:41:28;21.60;;;9.45;;
22652;SDS011;11493;43.344;26.226;2022-07-23T05:43:56;27.20;;;13.23;;
22652;SDS011;11493;43.344;26.226;2022-07-23T05:46:25;22.85;;;13.50;;
22652;SDS011;11493;43.344;26.226;2022-07-23T05:48:56;39.05;;;12.88;;
22652;SDS011;11493;43.344;26.226;2022-07-23T05:51:48;31.63;;;12.18;;
22652;SDS011;11493;43.344;26.226;2022-07-23T05:54:21;40.75;;;4.60;;
22652;SDS011;11493;43.344;26.226;2022-07-23T05:56:49;30.17;;;5.22;;
22652;SDS011;11493;43.344;26.226;2022-07-23T05:59:17;16.63;;;3.38;;
22652;SDS011;11493;43.344;26.226;2022-07-23T06:01:45;43.58;;;4.28;;
22652;SDS011;11493;43.344;26.226;2022-07-23T06:04:15;17.27;;;3.88;;
22652;SDS011;11493;43.344;26.226;2022-07-23T06:06:52;20.65;;;3.80;;
22652;SDS011;11493;43.344;26.226;2022-07-23T06:09:20;10.20;;;3.42;;
22652;SDS011;11493;43.344;26.226;2022-07-23T06:11:48;16.27;;;3.80;;
22652;SDS011;11493;43.344;26.226;2022-07-23T06:14:16;8.27;;;2.72;;
22652;SDS011;11493;43.344;26.226;2022-07-23T06:16:52;8.23;;;2.70;;
22652;SDS011;11493;43.344;26.226;2022-07-23T06:19:20;13.55;;;3.35;;
22652;SDS011;11493;43.344;26.226;2022-07-23T06:21:48;11.45;;;2.47;;
22652;SDS011;11493;43.344;26.226;2022-07-23T06:24:16;12.80;;;2.45;;
22652;SDS011;11493;43.344;26.226;2022-07-23T06:26:44;13.30;;;2.55;;
22652;SDS011;11493;43.344;26.226;2022-07-23T06:29:11;24.02;;;3.72;;
22652;SDS011;11493;43.344;26.226;2022-07-23T06:31:38;14.18;;;2.80;;
22652;SDS011;11493;43.344;26.226;2022-07-23T06:34:06;18.35;;;2.58;;
22652;SDS011;11493;43.344;26.226;2022-07-23T06:36:35;11.18;;;2.88;;
22652;SDS011;11493;43.344;26.226;2022-07-23T06:39:05;9.65;;;2.55;;
22652;SDS011;11493;43.344;26.226;2022-07-23T06:41:35;19.27;;;2.65;;
22652;SDS011;11493;43.344;26.226;2022-07-23T06:44:02;16.92;;;3.00;;
22652;SDS011;11493;43.344;26.226;2022-07-23T06:46:31;19.00;;;2.42;;
22652;SDS011;11493;43.344;26.226;2022-07-23T06:48:59;6.43;;;2.53;;
22652;SDS011;11493;43.344;26.226;2022-07-23T06:51:28;12.15;;;2.47;;
22652;SDS011;11493;43.344;26.226;2022-07-23T06:53:56;10.90;;;2.72;;
22652;SDS011;11493;43.344;26.226;2022-07-23T06:56:28;8.07;;;2.47;;
22652;SDS011;11493;43.344;26.226;2022-07-23T06:59:23;14.48;;;2.55;;
22652;SDS011;11493;43.344;26.226;2022-07-23T07:02:03;8.88;;;2.83;;
22652;SDS011;11493;43.344;26.226;2022-07-23T07:04:31;8.55;;;2.40;;
22652;SDS011;11493;43.344;26.226;2022-07-23T07:07:00;9.95;;;2.58;;
22652;SDS011;11493;43.344;26.226;2022-07-23T07:09:28;17.10;;;2.78;;
22652;SDS011;11493;43.344;26.226;2022-07-23T07:11:55;14.75;;;2.67;;
22652;SDS011;11493;43.344;26.226;2022-07-23T07:14:27;9.85;;;2.55;;
22652;SDS011;11493;43.344;26.226;2022-07-23T07:17:03;11.85;;;2.78;;
22652;SDS011;11493;43.344;26.226;2022-07-23T07:19:34;7.85;;;2.80;;
22652;SDS011;11493;43.344;26.226;2022-07-23T07:22:08;11.95;;;2.50;;
22652;SDS011;11493;43.344;26.226;2022-07-23T07:24:39;11.55;;;2.95;;
22652;SDS011;11493;43.344;26.226;2022-07-23T07:29:34;11.70;;;2.70;;
22652;SDS011;11493;43.344;26.226;2022-07-23T07:32:04;11.25;;;2.83;;
22652;SDS011;11493;43.344;26.226;2022-07-23T07:34:32;8.70;;;2.88;;
22652;SDS011;11493;43.344;26.226;2022-07-23T07:37:24;10.77;;;2.40;;
22652;SDS011;11493;43.344;26.226;2022-07-23T07:39:52;15.30;;;2.65;;
22652;SDS011;11493;43.344;26.226;2022-07-23T07:42:19;4.25;;;2.20;;
22652;SDS011;11493;43.344;26.226;2022-07-23T07:44:47;8.73;;;2.22;;
22652;SDS011;11493;43.344;26.226;2022-07-23T07:47:14;7.50;;;2.40;;
22652;SDS011;11493;43.344;26.226;2022-07-23T07:49:42;4.32;;;2.42;;
22652;SDS011;11493;43.344;26.226;2022-07-23T07:52:10;10.20;;;2.33;;
22652;SDS011;11493;43.344;26.226;2022-07-23T07:54:38;15.88;;;2.50;;
22652;SDS011;11493;43.344;26.226;2022-07-23T07:57:05;6.57;;;2.10;;
22652;SDS011;11493;43.344;26.226;2022-07-23T07:59:53;8.35;;;2.33;;
22652;SDS011;11493;43.344;26.226;2022-07-23T08:02:22;3.75;;;2.13;;
22652;SDS011;11493;43.344;26.226;2022-07-23T08:04:49;10.30;;;2.10;;
22652;SDS011;11493;43.344;26.226;2022-07-23T08:07:17;6.95;;;2.00;;
22652;SDS011;11493;43.344;26.226;2022-07-23T08:09:46;6.28;;;1.90;;
22652;SDS011;11493;43.344;26.226;2022-07-23T08:12:16;4.40;;;1.85;;
22652;SDS011;11493;43.344;26.226;2022-07-23T08:14:44;5.00;;;2.25;;
22652;SDS011;11493;43.344;26.226;2022-07-23T08:17:12;7.57;;;2.05;;
22652;SDS011;11493;43.344;26.226;2022-07-23T08:19:41;7.25;;;2.10;;
22652;SDS011;11493;43.344;26.226;2022-07-23T08:22:09;4.95;;;1.75;;
22652;SDS011;11493;43.344;26.226;2022-07-23T08:24:36;10.55;;;1.95;;
22652;SDS011;11493;43.344;26.226;2022-07-23T08:27:03;7.38;;;2.03;;
22652;SDS011;11493;43.344;26.226;2022-07-23T08:29:36;3.10;;;2.17;;
22652;SDS011;11493;43.344;26.226;2022-07-23T08:32:03;14.95;;;2.22;;
22652;SDS011;11493;43.344;26.226;2022-07-23T08:34:51;6.30;;;1.98;;
22652;SDS011;11493;43.344;26.226;2022-07-23T08:37:18;13.43;;;2.60;;
22652;SDS011;11493;43.344;26.226;2022-07-23T08:39:46;78.95;;;5.78;;
22652;SDS011;11493;43.344;26.226;2022-07-23T08:42:13;10.10;;;2.38;;
22652;SDS011;11493;43.344;26.226;2022-07-23T08:44:44;8.65;;;2.30;;
22652;SDS011;11493;43.344;26.226;2022-07-23T08:47:18;5.68;;;2.15;;
22652;SDS011;11493;43.344;26.226;2022-07-23T08:52:13;4.18;;;1.67;;
22652;SDS011;11493;43.344;26.226;2022-07-23T08:54:51;9.02;;;2.17;;
22652;SDS011;11493;43.344;26.226;2022-07-23T08:57:19;7.78;;;2.15;;
22652;SDS011;11493;43.344;26.226;2022-07-23T08:59:47;7.68;;;2.20;;
22652;SDS011;11493;43.344;26.226;2022-07-23T09:02:14;11.40;;;2.20;;
22652;SDS011;11493;43.344;26.226;2022-07-23T09:04:42;4.85;;;2.03;;
22652;SDS011;11493;43.344;26.226;2022-07-23T09:07:09;8.63;;;2.10;;
22652;SDS011;11493;43.344;26.226;2022-07-23T09:09:36;22.60;;;2.80;;
22652;SDS011;11493;43.344;26.226;2022-07-23T09:12:05;10.75;;;2.08;;
22652;SDS011;11493;43.344;26.226;2022-07-23T09:17:15;2.65;;;1.77;;
22652;SDS011;11493;43.344;26.226;2022-07-23T09:19:44;3.17;;;1.90;;
22652;SDS011;11493;43.344;26.226;2022-07-23T09:22:26;9.88;;;2.13;;
22652;SDS011;11493;43.344;26.226;2022-07-23T09:27:46;16.65;;;2.30;;
22652;SDS011;11493;43.344;26.226;2022-07-23T09:30:24;4.55;;;2.00;;
22652;SDS011;11493;43.344;26.226;2022-07-23T09:33:03;13.93;;;2.70;;
22652;SDS011;11493;43.344;26.226;2022-07-23T09:38:24;6.97;;;1.73;;
22652;SDS011;11493;43.344;26.226;2022-07-23T09:41:05;15.15;;;3.47;;
22652;SDS011;11493;43.344;26.226;2022-07-23T09:43:34;15.85;;;1.67;;
22652;SDS011;11493;43.344;26.226;2022-07-23T09:51:23;8.02;;;2.25;;
22652;SDS011;11493;43.344;26.226;2022-07-23T09:53:52;8.38;;;2.15;;
22652;SDS011;11493;43.344;26.226;2022-07-23T09:56:29;3.53;;;1.92;;
22652;SDS011;11493;43.344;26.226;2022-07-23T09:58:57;6.55;;;1.95;;
22652;SDS011;11493;43.344;26.226;2022-07-23T10:01:39;7.75;;;2.03;;
22652;SDS011;11493;43.344;26.226;2022-07-23T10:04:07;7.72;;;2.20;;
22652;SDS011;11493;43.344;26.226;2022-07-23T10:07:06;6.88;;;1.90;;
22652;SDS011;11493;43.344;26.226;2022-07-23T10:09:55;11.82;;;2.22;;
22652;SDS011;11493;43.344;26.226;2022-07-23T10:12:43;6.00;;;1.92;;
22652;SDS011;11493;43.344;26.226;2022-07-23T10:15:30;5.47;;;1.88;;
22652;SDS011;11493;43.344;26.226;2022-07-23T10:17:57;7.40;;;1.88;;
22652;SDS011;11493;43.344;26.226;2022-07-23T10:20:25;9.38;;;2.20;;
22652;SDS011;11493;43.344;26.226;2022-07-23T10:23:08;23.65;;;2.58;;
22652;SDS011;11493;43.344;26.226;2022-07-23T10:25:45;4.03;;;1.80;;
22652;SDS011;11493;43.344;26.226;2022-07-23T10:31:01;3.17;;;1.80;;
22652;SDS011;11493;43.344;26.226;2022-07-23T10:34:02;7.43;;;2.00;;
22652;SDS011;11493;43.344;26.226;2022-07-23T10:37:17;6.93;;;2.30;;
22652;SDS011;11493;43.344;26.226;2022-07-23T10:42:48;8.18;;;2.00;;
22652;SDS011;11493;43.344;26.226;2022-07-23T10:45:23;8.40;;;2.10;;
22652;SDS011;11493;43.344;26.226;2022-07-23T10:48:12;10.93;;;2.60;;
22652;SDS011;11493;43.344;26.226;2022-07-23T10:50:42;9.55;;;2.35;;
22652;SDS011;11493;43.344;26.226;2022-07-23T10:55:41;11.43;;;2.45;;
22652;SDS011;11493;43.344;26.226;2022-07-23T10:58:10;8.90;;;2.10;;
22652;SDS011;11493;43.344;26.226;2022-07-23T11:00:38;7.60;;;2.33;;
22652;SDS011;11493;43.344;26.226;2022-07-23T11:03:27;15.68;;;2.28;;
22652;SDS011;11493;43.344;26.226;2022-07-23T11:05:55;7.53;;;2.25;;
22652;SDS011;11493;43.344;26.226;2022-07-23T11:08:24;9.18;;;2.42;;
22652;SDS011;11493;43.344;26.226;2022-07-23T11:11:14;6.13;;;1.92;;
22652;SDS011;11493;43.344;26.226;2022-07-23T11:13:47;16.80;;;2.10;;
22652;SDS011;11493;43.344;26.226;2022-07-23T11:24:09;4.43;;;2.33;;
22652;SDS011;11493;43.344;26.226;2022-07-23T11:31:57;12.65;;;2.60;;
22652;SDS011;11493;43.344;26.226;2022-07-23T11:34:40;7.43;;;2.22;;
22652;SDS011;11493;43.344;26.226;2022-07-23T11:37:10;12.70;;;2.20;;
22652;SDS011;11493;43.344;26.226;2022-07-23T11:39:39;8.53;;;2.03;;
22652;SDS011;11493;43.344;26.226;2022-07-23T11:42:07;6.65;;;2.20;;
22652;SDS011;11493;43.344;26.226;2022-07-23T11:44:38;7.38;;;2.10;;
22652;SDS011;11493;43.344;26.226;2022-07-23T11:47:08;7.50;;;1.92;;
22652;SDS011;11493;43.344;26.226;2022-07-23T11:49:37;7.32;;;2.00;;
22652;SDS011;11493;43.344;26.226;2022-07-23T11:52:05;9.80;;;2.40;;
22652;SDS011;11493;43.344;26.226;2022-07-23T11:54:40;13.05;;;2.00;;
22652;SDS011;11493;43.344;26.226;2022-07-23T11:57:20;10.73;;;2.40;;
22652;SDS011;11493;43.344;26.226;2022-07-23T11:59:54;8.73;;;2.17;;
22652;SDS011;11493;43.344;26.226;2022-07-23T12:02:42;5.75;;;2.28;;
22652;SDS011;11493;43.344;26.226;2022-07-23T12:05:12;9.05;;;2.20;;
22652;SDS011;11493;43.344;26.226;2022-07-23T12:07:46;4.45;;;2.15;;
22652;SDS011;11493;43.344;26.226;2022-07-23T12:10:20;6.95;;;2.00;;
22652;SDS011;11493;43.344;26.226;2022-07-23T12:12:51;7.75;;;2.10;;
22652;SDS011;11493;43.344;26.226;2022-07-23T12:15:22;11.00;;;1.90;;
22652;SDS011;11493;43.344;26.226;2022-07-23T12:17:53;12.35;;;2.30;;
22652;SDS011;11493;43.344;26.226;2022-07-23T12:20:30;10.07;;;2.63;;
22652;SDS011;11493;43.344;26.226;2022-07-23T12:23:00;12.57;;;2.53;;
22652;SDS011;11493;43.344;26.226;2022-07-23T12:25:32;13.00;;;2.60;;
22652;SDS011;11493;43.344;26.226;2022-07-23T12:30:41;11.25;;;2.15;;
22652;SDS011;11493;43.344;26.226;2022-07-23T12:33:10;4.57;;;1.98;;
22652;SDS011;11493;43.344;26.226;2022-07-23T12:35:42;6.78;;;2.58;;
22652;SDS011;11493;43.344;26.226;2022-07-23T12:38:14;73.18;;;7.18;;
22652;SDS011;11493;43.344;26.226;2022-07-23T12:43:28;5.28;;;1.90;;
22652;SDS011;11493;43.344;26.226;2022-07-23T12:46:05;8.70;;;2.53;;
22652;SDS011;11493;43.344;26.226;2022-07-23T12:51:06;15.40;;;2.33;;
22652;SDS011;11493;43.344;26.226;2022-07-23T12:56:19;5.47;;;2.53;;
22652;SDS011;11493;43.344;26.226;2022-07-23T12:58:49;6.72;;;2.42;;
22652;SDS011;11493;43.344;26.226;2022-07-23T13:01:29;8.33;;;2.60;;
22652;SDS011;11493;43.344;26.226;2022-07-23T13:04:10;10.00;;;2.50;;
22652;SDS011;11493;43.344;26.226;2022-07-23T13:09:14;8.20;;;2.35;;
22652;SDS011;11493;43.344;26.226;2022-07-23T13:11:46;6.70;;;2.28;;
22652;SDS011;11493;43.344;26.226;2022-07-23T13:14:17;7.38;;;1.85;;
22652;SDS011;11493;43.344;26.226;2022-07-23T13:16:47;8.20;;;1.95;;
22652;SDS011;11493;43.344;26.226;2022-07-23T13:19:18;9.88;;;2.30;;
22652;SDS011;11493;43.344;26.226;2022-07-23T13:21:46;6.75;;;2.38;;
22652;SDS011;11493;43.344;26.226;2022-07-23T13:24:14;12.93;;;2.08;;
22652;SDS011;11493;43.344;26.226;2022-07-23T13:26:41;5.88;;;2.50;;
22652;SDS011;11493;43.344;26.226;2022-07-23T13:29:10;10.18;;;2.45;;
22652;SDS011;11493;43.344;26.226;2022-07-23T13:31:38;16.42;;;2.58;;
22652;SDS011;11493;43.344;26.226;2022-07-23T13:34:06;14.00;;;2.58;;
22652;SDS011;11493;43.344;26.226;2022-07-23T13:36:37;20.52;;;3.85;;
22652;SDS011;11493;43.344;26.226;2022-07-23T13:39:05;13.93;;;2.10;;
22652;SDS011;11493;43.344;26.226;2022-07-23T13:41:36;3.60;;;2.00;;
22652;SDS011;11493;43.344;26.226;2022-07-23T13:44:05;5.05;;;2.20;;
22652;SDS011;11493;43.344;26.226;2022-07-23T13:46:33;9.13;;;2.20;;
22652;SDS011;11493;43.344;26.226;2022-07-23T13:49:02;9.70;;;2.33;;
22652;SDS011;11493;43.344;26.226;2022-07-23T13:51:36;8.25;;;2.20;;
22652;SDS011;11493;43.344;26.226;2022-07-23T13:54:04;7.63;;;2.40;;
22652;SDS011;11493;43.344;26.226;2022-07-23T13:56:35;11.05;;;1.95;;
22652;SDS011;11493;43.344;26.226;2022-07-23T14:02:06;4.87;;;2.47;;
22652;SDS011;11493;43.344;26.226;2022-07-23T14:04:56;7.47;;;2.13;;
22652;SDS011;11493;43.344;26.226;2022-07-23T14:07:24;8.23;;;2.50;;
22652;SDS011;11493;43.344;26.226;2022-07-23T14:09:51;15.23;;;3.30;;
22652;SDS011;11493;43.344;26.226;2022-07-23T14:12:29;7.95;;;2.00;;
22652;SDS011;11493;43.344;26.226;2022-07-23T14:15:00;6.93;;;2.50;;
22652;SDS011;11493;43.344;26.226;2022-07-23T14:17:29;4.88;;;2.30;;
22652;SDS011;11493;43.344;26.226;2022-07-23T14:19:58;8.20;;;2.20;;
22652;SDS011;11493;43.344;26.226;2022-07-23T14:22:26;12.05;;;2.75;;
22652;SDS011;11493;43.344;26.226;2022-07-23T14:24:54;8.15;;;2.38;;
22652;SDS011;11493;43.344;26.226;2022-07-23T14:27:25;10.15;;;2.30;;
22652;SDS011;11493;43.344;26.226;2022-07-23T14:29:54;9.57;;;2.42;;
22652;SDS011;11493;43.344;26.226;2022-07-23T14:32:22;9.95;;;2.40;;
22652;SDS011;11493;43.344;26.226;2022-07-23T14:34:54;14.20;;;2.42;;
22652;SDS011;11493;43.344;26.226;2022-07-23T14:37:25;7.53;;;2.50;;
22652;SDS011;11493;43.344;26.226;2022-07-23T14:39:52;9.93;;;2.38;;
22652;SDS011;11493;43.344;26.226;2022-07-23T14:42:20;9.50;;;2.80;;
22652;SDS011;11493;43.344;26.226;2022-07-23T14:44:50;7.45;;;2.40;;
22652;SDS011;11493;43.344;26.226;2022-07-23T14:47:18;8.18;;;2.67;;
22652;SDS011;11493;43.344;26.226;2022-07-23T14:49:48;11.32;;;2.60;;
22652;SDS011;11493;43.344;26.226;2022-07-23T14:52:17;13.60;;;2.45;;
22652;SDS011;11493;43.344;26.226;2022-07-23T14:54:44;14.20;;;2.50;;
22652;SDS011;11493;43.344;26.226;2022-07-23T14:57:15;13.82;;;2.20;;
22652;SDS011;11493;43.344;26.226;2022-07-23T14:59:46;10.85;;;2.72;;
22652;SDS011;11493;43.344;26.226;2022-07-23T15:02:21;7.10;;;2.90;;
22652;SDS011;11493;43.344;26.226;2022-07-23T15:04:49;8.52;;;2.60;;
22652;SDS011;11493;43.344;26.226;2022-07-23T15:07:17;8.88;;;2.55;;
22652;SDS011;11493;43.344;26.226;2022-07-23T15:09:46;6.13;;;2.13;;
22652;SDS011;11493;43.344;26.226;2022-07-23T15:12:15;8.60;;;2.33;;
22652;SDS011;11493;43.344;26.226;2022-07-23T15:14:43;8.80;;;2.75;;
22652;SDS011;11493;43.344;26.226;2022-07-23T15:17:11;23.52;;;2.88;;
22652;SDS011;11493;43.344;26.226;2022-07-23T15:19:41;9.18;;;2.90;;
22652;SDS011;11493;43.344;26.226;2022-07-23T15:22:10;10.75;;;2.80;;
22652;SDS011;11493;43.344;26.226;2022-07-23T15:24:38;12.60;;;2.22;;
22652;SDS011;11493;43.344;26.226;2022-07-23T15:27:06;9.88;;;2.53;;
22652;SDS011;11493;43.344;26.226;2022-07-23T15:29:34;8.13;;;2.67;;
22652;SDS011;11493;43.344;26.226;2022-07-23T15:32:02;9.50;;;2.70;;
22652;SDS011;11493;43.344;26.226;2022-07-23T15:34:30;6.22;;;2.65;;
22652;SDS011;11493;43.344;26.226;2022-07-23T15:37:03;10.05;;;2.30;;
22652;SDS011;11493;43.344;26.226;2022-07-23T15:39:46;13.35;;;3.15;;
22652;SDS011;11493;43.344;26.226;2022-07-23T15:42:14;11.88;;;3.10;;
22652;SDS011;11493;43.344;26.226;2022-07-23T15:44:43;14.02;;;6.32;;
22652;SDS011;11493;43.344;26.226;2022-07-23T15:47:13;8.37;;;4.07;;